Time;durP1;ratioP1;P1;durP2;ratioP2;P2;SDS_P1;SDS_P2;PMS_P1;PMS_P2;Temp;Humidity;BMP_temperature;BMP_pressure;BME280_temperature;BME280_humidity;BME280_pressure;Samples;Min_cycle;Max_cycle;Signal;HPM_P1;HPM_P2
2022/04/18 00:04:27;;;;;;;2.78;1.40;;;;;;;22.16;39.10;100673.75;20386036;28;96940;-78
2022/04/18 00:14:28;;;;;;;1.60;1.20;;;;;;;22.15;39.17;100672.06;20368176;28;97457;-78
2022/04/18 00:24:28;;;;;;;1.25;1.15;;;;;;;22.11;39.14;100660.09;20363987;28;98480;-77
2022/04/18 00:34:29;;;;;;;1.20;1.07;;;;;;;22.13;39.20;100649.41;20359573;28;99651;-78
2022/04/18 00:44:29;;;;;;;1.55;1.23;;;;;;;22.08;39.29;100647.13;20372157;28;96935;-77
2022/04/18 00:54:32;;;;;;;1.42;0.98;;;;;;;22.05;39.47;100642.09;20360152;28;97415;-78
2022/04/18 01:04:33;;;;;;;2.72;1.20;;;;;;;22.02;39.33;100624.72;20370383;28;97322;-78
2022/04/18 01:14:33;;;;;;;1.25;1.15;;;;;;;22.05;39.58;100623.66;20394199;28;97771;-78
2022/04/18 01:34:52;;;;;;;1.58;1.17;;;;;;;21.99;39.69;100590.66;20374294;28;96855;-77
2022/04/18 01:44:53;;;;;;;1.30;1.20;;;;;;;22.01;39.46;100587.94;20369579;28;96924;-78
2022/04/18 01:54:54;;;;;;;3.20;1.27;;;;;;;22.02;39.64;100579.91;20376168;28;97041;-79
2022/04/18 02:04:55;;;;;;;1.45;1.30;;;;;;;21.98;40.15;100572.34;20361120;28;101411;-79
2022/04/18 02:14:55;;;;;;;1.25;1.02;;;;;;;21.96;39.74;100556.66;20374057;28;97318;-79
2022/04/18 02:24:59;;;;;;;1.95;1.10;;;;;;;21.91;40.30;100543.00;20377416;28;97616;-78
2022/04/18 02:35:01;;;;;;;1.80;1.30;;;;;;;21.91;40.23;100543.00;20386339;28;97520;-78
2022/04/18 02:45:03;;;;;;;1.20;1.10;;;;;;;21.91;39.97;100529.81;20396758;28;97854;-77
2022/04/18 02:55:05;;;;;;;1.30;1.00;;;;;;;21.91;40.02;100519.28;20364991;28;98436;-78
2022/04/18 03:05:08;;;;;;;1.00;0.90;;;;;;;21.91;40.26;100514.00;20371085;28;98007;-79
2022/04/18 03:15:09;;;;;;;2.40;1.20;;;;;;;21.88;40.20;100509.78;20375863;28;97454;-78
2022/04/18 03:25:09;;;;;;;1.58;1.00;;;;;;;21.90;40.24;100505.22;20383196;28;98699;-78
2022/04/18 03:35:10;;;;;;;1.30;1.20;;;;;;;21.91;40.59;100500.81;20362099;28;98132;-77
2022/04/18 03:45:13;;;;;;;1.60;1.13;;;;;;;21.90;40.94;100491.22;20370403;28;98911;-76
2022/04/18 03:55:13;;;;;;;1.38;1.10;;;;;;;21.88;41.13;100475.50;20366121;28;100301;-76
2022/04/18 04:05:14;;;;;;;1.40;1.10;;;;;;;21.87;41.53;100471.22;20373619;28;100782;-77
2022/04/18 04:15:14;;;;;;;1.60;1.50;;;;;;;21.83;41.65;100471.56;20380696;28;97365;-77
2022/04/18 04:25:15;;;;;;;2.10;1.38;;;;;;;21.85;41.73;100477.53;20384115;28;97740;-76
2022/04/18 04:35:17;;;;;;;1.92;1.38;;;;;;;21.87;42.05;100473.00;20382640;28;98455;-77
2022/04/18 04:45:17;;;;;;;1.88;1.60;;;;;;;21.89;41.57;100474.53;20396437;28;100175;-77
2022/04/18 04:55:19;;;;;;;1.63;1.38;;;;;;;21.93;41.90;100463.78;20385059;28;97173;-77
2022/04/18 05:05:19;;;;;;;1.98;1.60;;;;;;;21.96;42.01;100464.38;20367081;28;97056;-77
2022/04/18 05:15:20;;;;;;;1.90;1.70;;;;;;;21.99;41.77;100469.38;20370073;28;96950;-77
2022/04/18 05:25:21;;;;;;;2.22;1.45;;;;;;;21.96;42.02;100467.00;20387608;28;97671;-76
2022/04/18 05:35:22;;;;;;;3.73;1.97;;;;;;;21.97;42.07;100458.16;20379429;28;98281;-78
2022/04/18 05:45:23;;;;;;;1.50;1.40;;;;;;;22.02;41.59;100455.97;20369195;28;98039;-76
2022/04/18 05:55:25;;;;;;;2.22;1.80;;;;;;;22.09;42.25;100463.38;20374048;28;100301;-77
2022/04/18 06:05:25;;;;;;;2.95;1.70;;;;;;;22.12;42.60;100461.34;20362621;28;101272;-78
2022/04/18 06:15:26;;;;;;;2.55;1.63;;;;;;;22.15;42.32;100452.34;20359258;28;98141;-76
2022/04/18 06:25:26;;;;;;;4.88;1.65;;;;;;;22.17;42.20;100453.88;20449278;28;99283;-76
2022/04/18 06:35:27;;;;;;;3.83;1.70;;;;;;;22.22;43.13;100449.06;20461328;28;97701;-76
2022/04/18 06:45:28;;;;;;;5.63;2.58;;;;;;;22.19;36.21;100459.88;20442126;28;97854;-77
2022/04/18 06:56:58;;;;;;;5.50;2.50;;;;;;;22.12;34.66;100456.06;20473669;28;97654;-76
2022/04/18 07:05:53;;;;;;;5.10;2.25;;;;;;;22.07;32.52;100456.44;20447170;28;97150;-76
2022/04/18 07:15:53;;;;;;;3.07;1.87;;;;;;;22.00;31.79;100455.25;20438756;28;97022;-76
2022/04/18 07:25:55;;;;;;;4.28;2.20;;;;;;;21.96;29.78;100445.06;20438992;28;97806;-75
2022/04/18 07:35:56;;;;;;;2.53;2.30;;;;;;;21.93;31.64;100437.41;20429161;28;98397;-75
2022/04/18 07:45:57;;;;;;;7.47;2.58;;;;;;;21.96;34.42;100438.00;20425904;28;97783;-80
2022/04/18 07:55:58;;;;;;;12.23;2.53;;;;;;;22.00;36.65;100430.69;20428004;28;100594;-79
2022/04/18 08:05:59;;;;;;;12.68;2.65;;;;;;;22.02;37.76;100432.25;20447687;28;98946;-78
2022/04/18 08:16:00;;;;;;;5.55;2.15;;;;;;;22.09;37.94;100415.91;20409142;28;98434;-75
2022/04/18 08:26:04;;;;;;;10.85;2.63;;;;;;;22.17;38.12;100408.22;20448753;28;98138;-76
2022/04/18 08:36:04;;;;;;;5.40;1.98;;;;;;;22.19;37.33;100396.59;20430346;28;97279;-74
2022/04/18 08:46:05;;;;;;;4.05;1.98;;;;;;;22.21;36.75;100397.28;20448167;28;97697;-79
2022/04/18 08:56:06;;;;;;;5.88;2.20;;;;;;;20.14;24.70;100392.03;20444194;28;97705;-78
2022/04/18 09:06:12;;;;;;;2.33;1.45;;;;;;;19.59;25.68;100381.91;20441675;28;97236;-79
2022/04/18 09:16:18;;;;;;;2.30;1.52;;;;;;;20.67;27.98;100359.25;20470321;28;97070;-79
2022/04/18 09:26:21;;;;;;;4.88;2.03;;;;;;;21.06;30.36;100352.75;20456308;28;97747;-83
2022/04/18 09:36:23;;;;;;;4.70;1.70;;;;;;;21.32;31.91;100344.59;20426624;28;101035;-79
2022/04/18 09:46:26;;;;;;;5.73;2.03;;;;;;;21.50;33.14;100333.59;20430739;28;99165;-81
2022/04/18 09:56:32;;;;;;;5.68;2.20;;;;;;;21.62;34.75;100324.75;20443596;28;99083;-83
2022/04/18 10:06:32;;;;;;;9.77;2.40;;;;;;;;;;20438983;28;98090;-76
2022/04/18 10:16:33;;;;;;;6.40;2.28;;;;;;;21.87;36.01;100312.19;20449335;28;96786;-79
2022/04/18 10:27:11;;;;;;;7.07;1.83;;;;;;;22.01;36.68;100297.91;20428634;28;101549;-78
2022/04/18 10:37:15;;;;;;;12.27;1.80;;;;;;;22.10;37.36;100277.84;20458396;28;99740;-82
2022/04/18 10:47:16;;;;;;;7.18;1.98;;;;;;;22.15;38.07;100276.47;20442558;28;100874;-78
2022/04/18 10:57:17;;;;;;;8.38;2.08;;;;;;;22.20;32.56;100255.84;20426648;28;96894;-76
2022/04/18 11:07:17;;;;;;;5.60;1.60;;;;;;;22.22;34.75;100258.34;20426987;28;98348;-76
2022/04/18 11:17:29;;;;;;;6.47;1.58;;;;;;;22.44;36.09;100238.09;20426761;28;100180;-76
2022/04/18 11:27:32;;;;;;;6.23;1.77;;;;;;;22.51;38.39;100231.34;20442329;28;98839;-75
2022/04/18 11:37:39;;;;;;;4.55;1.83;;;;;;;22.31;33.00;100231.19;20436763;28;97687;-74
2022/04/18 11:47:44;;;;;;;4.72;1.55;;;;;;;22.38;34.79;100223.63;20448885;28;101319;-75
2022/04/18 11:57:47;;;;;;;3.60;1.30;;;;;;;22.41;35.82;100222.53;20461664;28;99970;-76
2022/04/18 12:07:48;;;;;;;;;;;;;;;22.40;36.28;100213.78;20453611;28;97005;-76
2022/04/18 12:17:49;;;;;;;3.60;1.38;;;;;;;22.43;36.11;100212.69;20449899;28;97365;-76
2022/04/18 12:27:51;;;;;;;2.38;1.60;;;;;;;22.51;37.47;100207.59;20458365;28;97683;-77
2022/04/18 12:37:52;;;;;;;4.82;2.28;;;;;;;22.04;30.07;100186.91;20433349;28;97830;-77
2022/04/18 12:47:53;;;;;;;4.03;1.60;;;;;;;22.35;33.58;100169.31;20437901;28;98970;-76
2022/04/18 12:57:54;;;;;;;4.90;1.42;;;;;;;22.56;34.61;100168.44;20454816;28;101358;-77
2022/04/18 13:08:02;;;;;;;2.78;1.40;;;;;;;22.59;36.22;100151.50;20425635;28;98185;-76
2022/04/18 13:18:08;;;;;;;3.60;1.45;;;;;;;22.69;36.47;100144.44;20419681;28;100586;-76
2022/04/18 13:28:11;;;;;;;2.00;1.33;;;;;;;22.83;36.77;100130.88;20460064;28;97847;-76
2022/04/18 13:38:12;;;;;;;3.70;1.70;;;;;;;22.99;36.78;100119.78;20455921;28;97554;-80
2022/04/18 13:48:15;;;;;;;4.30;1.50;;;;;;;22.57;28.89;100114.72;20456221;27;98624;-81
2022/04/18 13:58:16;;;;;;;;;;;;;;;22.84;32.95;100106.13;20456323;28;97614;-79
2022/04/18 14:08:17;;;;;;;10.95;1.25;;;;;;;22.91;33.87;100095.88;20445801;28;99764;-77
2022/04/18 14:28:38;;;;;;;7.90;1.55;;;;;;;22.89;35.07;100087.25;20458606;28;97216;-80
2022/04/18 14:38:38;;;;;;;5.97;1.70;;;;;;;22.83;34.73;100093.91;20449761;28;97147;-81
2022/04/18 14:48:39;;;;;;;5.00;1.40;;;;;;;22.83;34.80;100080.72;20456828;28;98463;-75
2022/04/18 14:58:40;;;;;;;26.10;2.50;;;;;;;23.55;34.57;100071.69;20448244;28;98358;-82
2022/04/18 15:08:41;;;;;;;11.60;2.05;;;;;;;24.42;33.42;100059.13;20437218;28;100279;-78
2022/04/18 15:18:42;;;;;;;7.93;1.92;;;;;;;25.10;32.40;100049.91;20448022;28;97773;-77
2022/04/18 15:28:42;;;;;;;3.17;1.58;;;;;;;24.40;26.13;100043.41;20436222;28;97242;-76
2022/04/18 15:38:44;;;;;;;3.90;1.80;;;;;;;23.96;29.55;100044.03;20434971;28;99839;-81
2022/04/18 15:48:46;;;;;;;6.43;2.00;;;;;;;23.80;31.71;100046.44;20472691;28;100924;-82
2022/04/18 15:58:47;;;;;;;7.18;1.90;;;;;;;23.79;33.01;100042.13;20483098;28;97864;-83
2022/04/18 16:08:48;;;;;;;5.70;1.88;;;;;;;23.74;33.44;100047.00;20468991;28;97786;-82
2022/04/18 16:18:48;;;;;;;8.43;1.75;;;;;;;23.59;34.81;100055.38;20459038;28;98716;-83
2022/04/18 16:28:49;;;;;;;14.65;4.28;;;;;;;23.50;35.65;100053.63;20459862;28;98440;-81
2022/04/18 16:38:50;;;;;;;40.35;16.60;;;;;;;23.48;37.23;100058.22;20472062;28;98516;-84
2022/04/18 16:48:50;;;;;;;35.75;16.95;;;;;;;23.40;37.86;100058.06;20474742;28;97168;-87
2022/04/18 16:58:51;;;;;;;29.70;14.95;;;;;;;23.33;37.72;100068.38;20475933;28;97049;-76
2022/04/18 17:08:51;;;;;;;29.73;13.70;;;;;;;23.27;37.49;100080.34;20444451;28;98294;-77
2022/04/18 17:18:52;;;;;;;30.42;11.82;;;;;;;23.22;37.47;100085.22;20473469;28;97192;-79
2022/04/18 17:28:54;;;;;;;25.42;11.45;;;;;;;23.12;37.79;100093.09;20484077;28;97508;-80
2022/04/18 17:38:54;;;;;;;20.87;9.60;;;;;;;23.07;38.47;100100.63;20472957;28;97292;-79
2022/04/18 17:48:55;;;;;;;27.05;10.07;;;;;;;23.08;39.48;100106.72;20460294;28;98506;-75
2022/04/18 17:58:55;;;;;;;20.50;9.15;;;;;;;23.03;39.68;100101.84;20465734;28;97031;-82
2022/04/18 18:08:57;;;;;;;15.50;7.97;;;;;;;23.00;40.01;100094.22;20470902;28;97466;-82
2022/04/18 18:18:59;;;;;;;21.20;7.70;;;;;;;22.95;40.28;100091.13;20485349;28;97288;-81
2022/04/18 18:29:02;;;;;;;14.13;5.80;;;;;;;22.82;33.65;100112.53;20462834;28;98027;-85
2022/04/18 18:39:03;;;;;;;11.55;4.85;;;;;;;22.71;33.09;100109.03;20507746;28;97847;-85
2022/04/18 18:49:04;;;;;;;9.20;4.95;;;;;;;22.64;36.93;100104.44;20488468;28;97750;-82
2022/04/18 18:59:04;;;;;;;12.65;4.63;;;;;;;22.61;36.97;100104.72;20474726;28;97101;-80
2022/04/18 19:09:12;;;;;;;15.00;4.63;;;;;;;22.60;37.87;100108.31;20457394;28;97281;-80
2022/04/18 19:29:33;;;;;;;9.73;3.95;;;;;;;22.52;38.00;100095.78;20497312;28;98713;-83
2022/04/18 19:39:34;;;;;;;10.52;3.75;;;;;;;22.51;39.43;100097.59;20502122;28;96774;-83
2022/04/18 19:49:35;;;;;;;7.63;3.50;;;;;;;22.52;39.86;100093.16;20496649;28;96946;-83
2022/04/18 19:59:37;;;;;;;6.65;3.40;;;;;;;22.51;40.48;100091.50;20477989;28;96896;-82
2022/04/18 20:09:37;;;;;;;7.78;3.30;;;;;;;22.47;40.93;100101.50;20454432;28;97054;-82
2022/04/18 20:19:38;;;;;;;7.60;3.50;;;;;;;22.47;41.19;100095.34;20462870;28;97020;-82
2022/04/18 20:29:39;;;;;;;6.30;3.10;;;;;;;22.44;41.26;100104.38;20426204;28;99009;-82
2022/04/18 20:39:39;;;;;;;8.80;2.97;;;;;;;22.44;41.39;100103.56;20389037;28;96893;-83
2022/04/18 20:49:40;;;;;;;6.17;2.67;;;;;;;22.38;41.72;100094.38;20369078;28;97024;-83
2022/04/18 20:59:42;;;;;;;4.13;2.70;;;;;;;22.39;41.57;100102.13;20384585;28;96931;-82
2022/04/18 21:09:45;;;;;;;7.60;2.97;;;;;;;22.42;41.65;100106.31;20392857;28;97185;-82
2022/04/18 21:19:49;;;;;;;4.28;2.65;;;;;;;22.36;41.44;100101.53;20394389;28;97395;-83
2022/04/18 21:29:50;;;;;;;4.07;2.80;;;;;;;22.35;41.40;100097.22;20386351;28;97965;-81
2022/04/18 21:39:50;;;;;;;3.95;2.53;;;;;;;22.31;41.76;100082.66;20372582;28;97048;-81
2022/04/18 21:49:50;;;;;;;3.05;2.17;;;;;;;22.29;41.56;100080.16;20399318;28;98203;-80
2022/04/18 21:59:51;;;;;;;6.35;2.33;;;;;;;22.29;41.86;100081.94;20392139;28;97578;-81
2022/04/18 22:09:52;;;;;;;3.10;2.17;;;;;;;22.23;41.93;100073.59;20419755;28;97107;-81
2022/04/18 22:30:17;;;;;;;2.40;2.08;;;;;;;22.21;41.99;100069.44;20386201;28;99444;-83
2022/04/18 22:40:21;;;;;;;3.28;2.20;;;;;;;22.19;41.80;100056.38;20380535;28;97480;-82
2022/04/18 22:50:21;;;;;;;3.13;2.10;;;;;;;22.19;42.00;100047.63;20394569;28;97019;-80
2022/04/18 23:00:22;;;;;;;4.05;1.98;;;;;;;22.18;42.17;100032.75;20379903;28;97638;-80
2022/04/18 23:10:23;;;;;;;3.15;1.80;;;;;;;22.15;42.13;100017.22;20379639;28;101195;-82
2022/04/18 23:20:23;;;;;;;3.20;2.10;;;;;;;22.15;42.32;100017.22;20382147;28;101869;-83
2022/04/18 23:30:24;;;;;;;2.97;2.17;;;;;;;22.10;42.38;100001.78;20391643;28;96959;-82
2022/04/18 23:50:50;;;;;;;2.78;2.05;;;;;;;22.09;42.42;99991.38;20448550;28;98808;-82
